Cairns AAF (Fort Rucker) Air Field Fort Rucker,Ozark US
ICAO: KOZR
IATA: OZR
Category: Medium
Scheduled Services: No

Elevation: 301 ft
TransAlt. 18000 ft.

Airport Communications:
APP/DEP:121.1
ATIS:111.2
CLNC DEL:118.075
CTAF:135.2
GND:121.9
OPS:126.2
PMSV METRO:134.1
TWR:135.2

KOZR Zoom In..

Runways:

(A) RW 06 length 4546 ft width 150 ft
ILS 109.70 / hdg 64

(B) RW 18 length 5025 ft width 150 ft
---- / hdg 184

(C) RW 24 length 4546 ft width 150 ft
---- / hdg 244

(D) RW 36 length 5025 ft width 150 ft
---- / hdg 4

Location; KOZR
Day. 29 / Time. 18.56 Zulu
* Altimeter: 29.94
* Temperature: 16° c. 60.8°f.
* Wind from: 120° Speed 06 kn.
Dewpoint: 16° c.
Visibility: 3 Statute Miles.
Clouds: Overcast 300 ft.
Conditions: Rain.Conditions: Mist.

KOZR 291856Z AUTO 12006KT 3SM RA BR OVC003 16/16 A2994 RMK AO2 SLP140 P0017 T01610161

Going to: --> -->


Wind From 120°
Speed 06 kn.

 
 
jpsmedia worldairports.se 2020   terms of use